Time;durP1;ratioP1;P1;durP2;ratioP2;P2;SDS_P1;SDS_P2;PMS_P1;PMS_P2;Temp;Humidity;BMP_temperature;BMP_pressure;BME280_temperature;BME280_humidity;BME280_pressure;Samples;Min_cycle;Max_cycle;Signal;HPM_P1;HPM_P2
2023/10/31 00:11:19;;;;;;;40.55;9.05;;;23.70;88.80;;;;;;6236449;22;1650538;-72
2023/10/31 00:13:44;;;;;;;44.13;8.52;;;23.60;88.50;;;;;;6307782;22;20018;-74
2023/10/31 00:16:10;;;;;;;51.13;10.43;;;23.60;88.90;;;;;;6307408;22;20006;-72
2023/10/31 00:18:35;;;;;;;49.13;9.63;;;23.60;89.10;;;;;;6306833;22;20011;-73
2023/10/31 00:21:01;;;;;;;41.05;9.38;;;23.60;89.40;;;;;;6307270;22;19999;-74
2023/10/31 00:23:27;;;;;;;47.58;10.27;;;23.60;89.60;;;;;;6307505;22;20007;-72
2023/10/31 00:25:52;;;;;;;47.95;10.43;;;23.70;90.00;;;;;;6307962;22;19996;-72
2023/10/31 00:28:19;;;;;;;52.58;11.43;;;23.70;90.20;;;;;;6279749;22;20008;-73
2023/10/31 00:30:45;;;;;;;54.75;11.25;;;23.60;90.30;;;;;;6307299;22;20329;-73
2023/10/31 00:33:10;;;;;;;48.70;10.60;;;23.60;90.50;;;;;;6307378;22;20006;-73
2023/10/31 00:35:37;;;;;;;52.17;11.18;;;23.60;90.70;;;;;;6279973;22;20006;-72
2023/10/31 00:38:03;;;;;;;58.45;11.07;;;23.60;91.20;;;;;;6279962;22;20462;-74
2023/10/31 00:40:28;;;;;;;53.17;12.65;;;23.60;91.50;;;;;;6306845;22;19995;-73
2023/10/31 00:42:56;;;;;;;59.55;12.65;;;23.50;91.60;;;;;;6280138;22;20053;-73
2023/10/31 00:45:21;;;;;;;55.17;11.45;;;23.50;91.70;;;;;;6307671;22;20003;-74
2023/10/31 00:47:47;;;;;;;69.75;11.90;;;23.40;91.80;;;;;;6307608;22;20003;-74
2023/10/31 00:50:13;;;;;;;53.58;10.30;;;23.40;91.90;;;;;;6307372;22;20325;-73
2023/10/31 00:52:38;;;;;;;55.60;11.00;;;23.30;91.80;;;;;;6307383;22;20314;-73
2023/10/31 00:55:04;;;;;;;43.10;9.77;;;23.20;91.60;;;;;;6307374;22;19999;-73
2023/10/31 00:57:30;;;;;;;36.53;8.65;;;23.10;91.60;;;;;;6307276;22;20090;-72
2023/10/31 00:59:56;;;;;;;42.38;8.27;;;23.00;91.40;;;;;;6307092;22;20019;-73
2023/10/31 01:02:21;;;;;;;26.27;6.90;;;23.00;91.10;;;;;;6307318;22;20000;-75
2023/10/31 01:04:47;;;;;;;35.80;7.65;;;22.90;90.90;;;;;;6307357;22;20010;-73
2023/10/31 01:07:16;;;;;;;34.28;7.38;;;22.80;90.60;;;;;;6306787;22;20006;-73
2023/10/31 01:09:43;;;;;;;32.50;6.68;;;22.70;90.30;;;;;;6306553;22;20000;-73
2023/10/31 01:12:10;;;;;;;41.97;7.93;;;22.70;90.20;;;;;;6306701;22;20533;-72
2023/10/31 01:14:35;;;;;;;24.45;6.38;;;22.70;90.10;;;;;;6306870;22;20022;-73
2023/10/31 01:17:01;;;;;;;35.92;7.22;;;22.60;90.10;;;;;;6306722;22;20011;-73
2023/10/31 01:19:27;;;;;;;35.08;7.80;;;22.60;90.00;;;;;;6307193;22;20006;-74
2023/10/31 01:21:52;;;;;;;36.97;8.32;;;22.60;90.00;;;;;;6307251;22;20003;-74
2023/10/31 01:24:18;;;;;;;27.20;6.35;;;22.60;90.00;;;;;;6307214;22;19999;-73
2023/10/31 01:26:44;;;;;;;32.50;5.72;;;22.50;90.30;;;;;;6306569;22;20038;-73
2023/10/31 01:29:09;;;;;;;33.65;6.93;;;22.50;90.10;;;;;;6307021;22;20287;-72
2023/10/31 01:31:36;;;;;;;23.60;6.35;;;22.50;90.10;;;;;;6307240;22;20308;-73
2023/10/31 01:34:02;;;;;;;28.50;6.38;;;22.40;90.10;;;;;;6307189;22;20003;-73
2023/10/31 01:36:28;;;;;;;29.55;6.45;;;22.40;90.00;;;;;;6306561;22;19999;-73
2023/10/31 01:38:54;;;;;;;27.60;6.90;;;22.30;90.10;;;;;;6306353;22;20007;-73
2023/10/31 01:41:19;;;;;;;25.00;6.75;;;22.40;90.20;;;;;;6306636;22;20325;-73
2023/10/31 01:43:45;;;;;;;26.17;6.82;;;22.30;90.00;;;;;;6306763;22;20044;-73
2023/10/31 01:46:11;;;;;;;32.85;6.55;;;22.30;90.10;;;;;;6306672;22;19996;-72
2023/10/31 01:48:37;;;;;;;21.30;6.20;;;22.30;90.10;;;;;;6306487;22;20094;-74
2023/10/31 01:51:04;;;;;;;30.23;6.43;;;22.20;90.00;;;;;;6306581;22;20085;-72
2023/10/31 01:53:33;;;;;;;37.10;6.82;;;22.20;90.10;;;;;;6306751;22;19999;-73
2023/10/31 01:56:01;;;;;;;27.13;5.95;;;22.20;90.10;;;;;;6306879;22;20003;-74
2023/10/31 01:58:34;;;;;;;30.83;6.38;;;22.10;90.20;;;;;;6306318;22;20083;-72
2023/10/31 02:01:03;;;;;;;29.15;6.03;;;22.10;90.30;;;;;;6306006;22;20000;-73
2023/10/31 02:03:29;;;;;;;24.77;5.68;;;22.10;90.40;;;;;;6306718;22;20061;-73
2023/10/31 02:05:55;;;;;;;30.30;6.00;;;22.10;90.40;;;;;;6306505;22;20022;-73
2023/10/31 02:08:21;;;;;;;39.97;6.35;;;22.00;90.40;;;;;;6306455;22;20392;-73
2023/10/31 02:10:47;;;;;;;25.50;5.80;;;22.00;90.60;;;;;;6306228;22;20082;-72
2023/10/31 02:13:17;;;;;;;21.23;4.88;;;22.00;90.70;;;;;;6306369;22;20030;-73
2023/10/31 02:15:44;;;;;;;21.88;6.03;;;22.00;90.70;;;;;;6278686;22;19999;-73
2023/10/31 02:18:10;;;;;;;24.38;6.18;;;21.90;90.70;;;;;;6306376;22;20081;-72
2023/10/31 02:20:36;;;;;;;26.98;5.90;;;21.90;90.80;;;;;;6306057;22;19999;-73
2023/10/31 02:23:04;;;;;;;19.52;4.60;;;21.90;90.80;;;;;;6306264;22;20428;-74
2023/10/31 02:25:30;;;;;;;30.15;5.53;;;21.90;90.80;;;;;;6306290;22;19999;-73
2023/10/31 02:27:56;;;;;;;29.75;5.22;;;21.90;90.80;;;;;;6306867;22;20375;-73
2023/10/31 02:30:22;;;;;;;26.42;5.45;;;21.90;90.90;;;;;;6306420;22;19995;-73
2023/10/31 02:32:48;;;;;;;20.40;4.40;;;21.80;90.80;;;;;;6306575;22;20034;-73
2023/10/31 02:35:15;;;;;;;21.98;4.75;;;21.80;90.90;;;;;;6306151;22;20417;-73
2023/10/31 02:37:41;;;;;;;24.75;5.10;;;21.80;90.90;;;;;;6306085;22;20011;-73
2023/10/31 02:40:07;;;;;;;25.60;5.47;;;21.80;90.90;;;;;;6306041;22;20006;-73
2023/10/31 02:42:33;;;;;;;26.10;4.70;;;21.80;90.90;;;;;;6306257;22;20003;-72
2023/10/31 02:44:59;;;;;;;18.00;4.32;;;21.80;90.90;;;;;;6306128;22;20018;-74
2023/10/31 02:47:24;;;;;;;25.30;5.03;;;21.70;90.80;;;;;;6306460;22;20007;-71
2023/10/31 02:49:50;;;;;;;17.45;4.32;;;21.80;90.90;;;;;;6305992;22;20026;-73
2023/10/31 02:52:16;;;;;;;22.27;4.50;;;21.80;90.80;;;;;;6306169;22;20003;-73
2023/10/31 02:54:41;;;;;;;25.50;4.15;;;21.70;90.80;;;;;;6306191;22;20021;-73
2023/10/31 02:57:07;;;;;;;25.38;5.18;;;21.70;90.80;;;;;;6306075;22;20014;-74
2023/10/31 02:59:33;;;;;;;23.77;4.28;;;21.70;90.80;;;;;;6305821;22;20074;-73
2023/10/31 03:01:58;;;;;;;20.45;4.93;;;21.70;90.80;;;;;;6305741;22;20011;-73
2023/10/31 03:04:24;;;;;;;20.08;5.15;;;21.70;90.80;;;;;;6305998;22;20171;-73
2023/10/31 03:06:50;;;;;;;23.38;4.50;;;21.70;90.80;;;;;;6278434;22;20048;-73
2023/10/31 03:09:16;;;;;;;28.50;5.38;;;21.70;90.80;;;;;;6304820;22;20429;-73
2023/10/31 03:11:42;;;;;;;21.02;4.82;;;21.70;90.80;;;;;;6278018;22;20449;-74
2023/10/31 03:14:07;;;;;;;27.60;5.65;;;21.70;90.70;;;;;;6305693;22;20370;-73
2023/10/31 03:16:33;;;;;;;22.48;6.13;;;21.70;90.80;;;;;;6305657;22;19999;-71
2023/10/31 03:18:59;;;;;;;25.50;5.57;;;21.60;90.70;;;;;;6305512;22;19999;-73
2023/10/31 03:21:25;;;;;;;26.77;6.32;;;21.60;90.80;;;;;;6278409;22;20064;-73
2023/10/31 03:23:53;;;;;;;22.77;6.60;;;21.60;90.80;;;;;;6279077;22;20274;-73
2023/10/31 03:26:19;;;;;;;31.42;7.68;;;21.60;90.80;;;;;;6305305;22;19999;-74
2023/10/31 03:28:45;;;;;;;20.45;6.78;;;21.50;90.80;;;;;;6305367;22;20038;-73
2023/10/31 03:31:12;;;;;;;23.55;7.30;;;21.50;90.70;;;;;;6277789;22;20313;-72
2023/10/31 03:33:38;;;;;;;27.33;6.53;;;21.50;90.70;;;;;;6305192;22;20033;-73
2023/10/31 03:36:04;;;;;;;22.67;5.85;;;21.50;90.60;;;;;;6305612;22;20055;-72
2023/10/31 03:38:31;;;;;;;21.55;5.32;;;21.50;90.30;;;;;;6305552;22;20389;-72
2023/10/31 03:40:57;;;;;;;19.10;5.03;;;21.50;90.20;;;;;;6305728;22;20000;-72
2023/10/31 03:43:22;;;;;;;17.95;5.47;;;21.50;90.00;;;;;;6305832;22;20030;-72
2023/10/31 03:45:48;;;;;;;23.52;5.45;;;21.50;89.70;;;;;;6305435;22;20430;-72
2023/10/31 03:48:15;;;;;;;22.77;6.65;;;21.40;89.60;;;;;;6305480;22;20144;-73
2023/10/31 03:50:41;;;;;;;21.73;4.88;;;21.40;89.40;;;;;;6305619;22;20003;-72
2023/10/31 03:53:07;;;;;;;19.42;5.57;;;21.40;89.30;;;;;;6305914;22;20056;-72
2023/10/31 03:55:33;;;;;;;18.25;5.22;;;21.40;89.10;;;;;;6305558;22;20004;-72
2023/10/31 03:57:58;;;;;;;20.65;5.22;;;21.40;89.00;;;;;;6305426;22;20124;-72
2023/10/31 04:00:24;;;;;;;23.38;5.70;;;21.40;88.80;;;;;;6305503;22;20065;-72
2023/10/31 04:02:50;;;;;;;21.67;5.45;;;21.40;88.70;;;;;;6305525;22;20006;-73
2023/10/31 04:05:15;;;;;;;15.75;4.32;;;21.40;88.60;;;;;;6305216;22;19996;-73
2023/10/31 04:07:41;;;;;;;23.85;5.53;;;21.40;88.20;;;;;;6305588;22;20074;-74
2023/10/31 04:10:07;;;;;;;15.55;4.10;;;21.40;88.10;;;;;;6305341;22;19996;-72
2023/10/31 04:12:33;;;;;;;16.50;4.50;;;21.40;87.90;;;;;;6277770;22;20019;-72
2023/10/31 04:14:59;;;;;;;17.55;4.60;;;21.40;87.80;;;;;;6305083;22;20498;-72
2023/10/31 04:17:25;;;;;;;22.73;5.22;;;21.40;87.50;;;;;;6277694;22;20016;-72
2023/10/31 04:19:51;;;;;;;22.25;5.45;;;21.40;87.50;;;;;;6304974;22;20010;-71
2023/10/31 04:22:16;;;;;;;18.60;4.57;;;21.30;87.30;;;;;;6305353;22;20337;-72
2023/10/31 04:24:43;;;;;;;15.85;4.63;;;21.30;87.30;;;;;;6305204;22;20357;-71
2023/10/31 04:27:09;;;;;;;16.38;4.57;;;21.30;87.50;;;;;;6305540;22;20105;-73
2023/10/31 04:29:35;;;;;;;18.27;4.80;;;21.30;87.30;;;;;;6305416;22;20022;-73
2023/10/31 04:32:00;;;;;;;17.38;4.35;;;21.30;87.00;;;;;;6304784;22;20129;-73
2023/10/31 04:34:26;;;;;;;24.13;5.50;;;21.30;86.70;;;;;;6305082;22;20389;-71
2023/10/31 04:36:52;;;;;;;15.98;4.53;;;21.30;86.40;;;;;;6304901;22;20035;-73
2023/10/31 04:39:17;;;;;;;22.02;5.60;;;21.30;86.20;;;;;;6304952;22;20490;-73
2023/10/31 04:41:43;;;;;;;21.05;5.95;;;21.30;85.90;;;;;;6277625;22;20046;-73
2023/10/31 04:44:09;;;;;;;21.50;5.38;;;21.30;85.80;;;;;;6304782;22;20015;-73
2023/10/31 04:46:34;;;;;;;18.95;4.80;;;21.20;85.70;;;;;;6306678;22;19999;-72
2023/10/31 04:49:00;;;;;;;17.23;5.20;;;21.20;85.60;;;;;;6306855;22;20003;-71
2023/10/31 04:51:26;;;;;;;16.27;4.53;;;21.20;85.40;;;;;;6306750;22;20010;-73
2023/10/31 04:53:51;;;;;;;17.60;4.68;;;21.20;85.10;;;;;;6306686;22;20030;-74
2023/10/31 04:56:17;;;;;;;15.73;4.50;;;21.20;84.90;;;;;;6307114;22;20006;-73
2023/10/31 04:58:44;;;;;;;18.52;4.88;;;21.20;84.80;;;;;;6307041;22;20065;-73
2023/10/31 05:01:11;;;;;;;16.77;4.68;;;21.20;84.60;;;;;;6279253;22;20006;-72
2023/10/31 05:03:37;;;;;;;18.08;4.95;;;21.10;84.40;;;;;;6278904;22;20131;-73
2023/10/31 05:06:03;;;;;;;20.45;5.82;;;21.10;84.40;;;;;;6307088;22;20066;-74
2023/10/31 05:08:30;;;;;;;17.65;4.80;;;21.10;84.30;;;;;;6307008;22;20018;-73
2023/10/31 05:10:55;;;;;;;18.17;5.15;;;21.10;84.10;;;;;;6306933;22;20065;-74
2023/10/31 05:13:21;;;;;;;17.58;5.28;;;21.10;83.80;;;;;;6307300;22;19999;-73
2023/10/31 05:15:47;;;;;;;18.00;4.80;;;21.10;83.80;;;;;;6307169;22;20026;-73
2023/10/31 05:18:12;;;;;;;14.52;4.32;;;21.10;83.90;;;;;;6307785;22;20011;-73
2023/10/31 05:20:38;;;;;;;15.23;4.88;;;21.10;83.60;;;;;;6307663;22;20274;-74
2023/10/31 05:23:04;;;;;;;15.23;4.95;;;21.10;83.60;;;;;;6307665;22;20018;-73
2023/10/31 05:25:30;;;;;;;20.92;5.18;;;21.20;83.50;;;;;;6307236;22;20003;-72
2023/10/31 05:27:55;;;;;;;16.95;4.30;;;21.20;83.60;;;;;;6307497;22;20086;-73
2023/10/31 05:30:21;;;;;;;13.60;4.05;;;21.20;83.60;;;;;;6307282;22;20034;-73
2023/10/31 05:32:47;;;;;;;12.63;3.85;;;21.20;83.60;;;;;;6307154;22;20003;-74
2023/10/31 05:35:12;;;;;;;19.05;4.60;;;21.20;83.40;;;;;;6307201;22;20045;-73
2023/10/31 05:37:38;;;;;;;16.88;4.25;;;21.20;83.20;;;;;;6306653;22;20038;-74
2023/10/31 05:40:05;;;;;;;15.50;3.83;;;21.30;83.30;;;;;;6306919;22;19999;-72
2023/10/31 05:42:30;;;;;;;20.20;3.80;;;21.30;83.40;;;;;;6306951;22;20003;-73
2023/10/31 05:44:56;;;;;;;15.18;4.28;;;21.30;83.00;;;;;;6307161;22;20057;-73
2023/10/31 05:47:22;;;;;;;16.67;3.83;;;21.30;82.90;;;;;;6307339;22;20015;-73
2023/10/31 05:49:48;;;;;;;26.20;4.80;;;21.40;82.90;;;;;;6307070;22;20423;-72
2023/10/31 05:52:14;;;;;;;19.23;5.28;;;21.40;83.00;;;;;;6306939;22;20003;-74
2023/10/31 05:54:40;;;;;;;16.63;4.40;;;21.40;82.60;;;;;;6306977;22;20333;-73
2023/10/31 05:57:06;;;;;;;20.05;4.32;;;21.40;82.60;;;;;;6307106;22;20015;-74
2023/10/31 05:59:32;;;;;;;17.08;4.47;;;21.40;82.60;;;;;;6307387;22;20007;-75
2023/10/31 06:01:58;;;;;;;14.82;5.00;;;21.50;82.60;;;;;;6306510;22;20029;-74
2023/10/31 06:04:24;;;;;;;20.92;4.47;;;21.50;82.50;;;;;;6306945;22;20082;-73
2023/10/31 06:06:50;;;;;;;19.15;5.07;;;21.40;82.50;;;;;;6306547;22;20003;-73
2023/10/31 06:09:16;;;;;;;15.70;4.50;;;21.40;82.40;;;;;;6279362;22;20003;-73
